La Crosse, Arkansas
Current Conditions -  °F | °C
As of 7:35 AM on Thursday 27 Nov 2014 (Local Time) from KBVX Reporting Station
Broken Clouds Broken Clouds  
Wind Chill: 29°   Ceiling: 3000
Heat Index: 36°   Visibility: 10mi
Dew Point: 25°   Wind: 8mph
Humidity: 65%   Direction: 320°NW
Pressure: 30.47"   Gusts: NA
Location:  36.1613°N, 91.8521°W
Report Text: KBVX 271335Z AUTO 32007KT 270V340 10SM BKN030 02/M04 A3047 RMK AO1
Loading
Personal Weather Stations






























Interactive Weather Map New forecast layout! Learn more

10-Day Weather Forecast

Advertisements
Track Severe Weather on mobile